• Join FlightAware (Why Join?)
  • Login
  • US Flag 
04:21PM EST


 

Airport Tracker/Info


-or-


 

Live Flight TrackerFlight Track Log ✈ AMF1026 ✈ 01-May-2013 ✈ KALB - KCVG

Flight Track Log - Related Links

Times and Time Zones

All times are in EDT time to prevent confusion due to time zone crossing. See the AMF1026 flight status page for this flight to view local times or setup timezone preferences in your user account.

Time Position Orientation Groundspeed Altitude Reporting Facility
EDT Latitude Longitude Course Direction KTS MPH feet Rate Location/Type
09:08PM 42.7339 -73.8081 192° South 134 154 1,000  Level Boston Center
09:09PM 42.6964 -73.8186 192° South 180 207 2,400 1,620 Climbing Boston Center
09:10PM 42.6664 -73.8800 236° Southwest 205 236 4,000 1,380 Climbing Boston Center
09:11PM 42.6428 -73.9389 241° Southwest 213 245 5,000 1,500 Climbing Boston Center
09:12PM 42.6686 -74.0186 294° West 204 235 6,800 1,560 Climbing Boston Center
09:13PM 42.6928 -74.0814 298° West 204 235 8,200 1,500 Climbing Boston Center
09:14PM 42.7189 -74.1611 294° West 210 242 9,800 1,380 Climbing Boston Center
09:15PM 42.7386 -74.2294 291° West 217 250 11,000 1,260 Climbing Boston Center
09:16PM 42.7433 -74.3203 274° West 217 250 12,400 1,200 Climbing Boston Center
09:17PM 42.7233 -74.3931 250° West 225 259 13,500 1,080 Climbing Boston Center
09:18PM 42.7008 -74.4856 252° West 230 265 14,600 1,020 Climbing Boston Center
09:19PM 42.6869 -74.5614 256° West 230 265 15,600 660 Climbing Boston Center
09:20PM 42.6603 -74.6536 249° West 241 277 16,000 180 Climbing Boston Center
09:21PM 42.6253 -74.7342 239° Southwest 265 305 16,000  Level Boston Center
09:22PM 42.5900 -74.8289 243° Southwest 277 319 16,000  Level Boston Center
09:23PM 42.5589 -74.9206 245° Southwest 282 325 16,000  Level Boston Center
09:24PM 42.5292 -75.0378 251° West 272 313 16,000  Level Boston Center
09:25PM 42.5042 -75.1269 249° West 266 306 16,000  Level Boston Center
09:27PM 42.4358 -75.3192 244° Southwest 269 310 16,000  Level New York Center
09:28PM 42.3969 -75.4064 239° Southwest 274 315 16,000  Level New York Center
09:29PM 42.3622 -75.4936 242° Southwest 274 315 16,000  Level New York Center
09:30PM 42.3253 -75.5836 241° Southwest 274 315 16,000  Level New York Center
09:31PM 42.2925 -75.6736 244° Southwest 274 315 16,000  Level New York Center
09:32PM 42.2619 -75.7611 245° Southwest 274 315 16,000  Level New York Center
09:33PM 42.2369 -75.8572 251° West 269 310 16,000  Level New York Center
09:34PM 42.2144 -75.9478 251° West 263 303 16,000  Level New York Center
09:35PM 42.1894 -76.0439 251° West 263 303 16,000  Level New York Center
09:36PM 42.1583 -76.1336 245° Southwest 268 308 16,000  Level New York Center
09:37PM 42.1311 -76.2264 248° West 268 308 16,000  Level New York Center
09:38PM 42.1019 -76.3164 246° West 268 308 16,000  Level New York Center
09:39PM 42.0728 -76.4061 246° West 268 308 16,000  Level New York Center
09:40PM 42.0436 -76.4931 246° West 268 308 16,000  Level New York Center
09:41PM 42.0100 -76.5850 244° Southwest 268 308 16,000  Level New York Center
09:42PM 41.9772 -76.6631 241° Southwest 274 315 16,000  Level New York Center
09:44PM 41.9019 -76.8694 244° Southwest 264 304 16,000  Level Cleveland Center
09:45PM 41.8653 -76.9581 241° Southwest 264 304 16,000  Level Cleveland Center
09:46PM 41.8325 -77.0464 244° Southwest 269 310 16,000  Level Cleveland Center
09:47PM 41.7939 -77.1433 242° Southwest 269 310 16,000  Level Cleveland Center
09:48PM 41.7611 -77.2314 244° Southwest 269 310 16,000  Level Cleveland Center
09:49PM 41.7281 -77.3194 243° Southwest 269 310 16,000  Level Cleveland Center
09:50PM 41.6972 -77.4100 246° West 269 310 16,000  Level Cleveland Center
09:51PM 41.6642 -77.5006 244° Southwest 269 310 16,000  Level Cleveland Center
09:52PM 41.6353 -77.5825 245° Southwest 274 315 16,000  Level Cleveland Center
09:53PM 41.6083 -77.6753 249° West 264 304 16,000  Level Cleveland Center
09:54PM 41.5856 -77.7681 252° West 264 304 16,000  Level Cleveland Center
09:55PM 41.5628 -77.8606 252° West 269 310 16,000  Level Cleveland Center
09:56PM 41.5294 -77.9481 243° Southwest 269 310 16,000  Level Cleveland Center
09:57PM 41.4897 -78.0328 238° Southwest 274 315 16,000  Level Cleveland Center
09:58PM 41.4500 -78.1175 238° Southwest 274 315 16,000  Level Cleveland Center
09:59PM 41.4119 -78.2019 239° Southwest 274 315 16,000  Level Cleveland Center
10:00PM 41.3803 -78.2750 240° Southwest 274 315 16,000  Level Cleveland Center
10:01PM 41.3406 -78.3733 242° Southwest 269 310 16,000  Level Cleveland Center
10:02PM 41.3025 -78.4575 239° Southwest 269 310 16,000  Level Cleveland Center
10:03PM 41.2664 -78.5417 240° Southwest 269 310 16,000  Level Cleveland Center
10:04PM 41.2325 -78.6228 241° Southwest 269 310 16,000  Level Cleveland Center
10:05PM 41.2047 -78.7147 248° West 269 310 16,000  Level Cleveland Center
10:06PM 41.1792 -78.8036 249° West 263 303 16,000  Level Cleveland Center
10:07PM 41.1597 -78.8953 254° West 263 303 16,000  Level Cleveland Center
10:08PM 41.1403 -78.9950 256° West 258 297 16,000  Level Cleveland Center
10:09PM 41.1247 -79.0781 256° West 258 297 16,000  Level Cleveland Center
10:10PM 41.1069 -79.1722 256° West 263 303 16,000  Level Cleveland Center
10:11PM 41.0894 -79.2636 256° West 263 303 16,000 -60 Level Cleveland Center
10:12PM 41.0717 -79.3547 256° West 258 297 15,900 -60 Descending Cleveland Center
10:13PM 41.0517 -79.4486 254° West 258 297 15,900  Level Cleveland Center
10:14PM 41.0317 -79.5372 253° West 258 297 15,900  Level Cleveland Center
10:15PM 41.0097 -79.6311 253° West 263 303 15,900  Level Cleveland Center
10:16PM 40.9792 -79.7194 245° Southwest 269 310 15,900  Level Cleveland Center
10:17PM 40.9464 -79.8081 244° Southwest 274 315 15,900  Level Cleveland Center
10:18PM 40.9197 -79.8961 248° West 274 315 15,900  Level Cleveland Center
10:19PM 40.8911 -79.9817 246° West 274 315 15,900  Level Cleveland Center
10:20PM 40.8603 -80.0697 245° Southwest 274 315 16,000  Climbing Cleveland Center
10:21PM 40.8336 -80.1550 248° West 269 310 16,000  Level Cleveland Center
10:22PM 40.8108 -80.2458 252° West 264 304 16,000  Level Cleveland Center
10:23PM 40.7778 -80.3281 242° Southwest 259 298 16,000  Level Cleveland Center
10:24PM 40.7361 -80.4214 240° Southwest 265 305 16,000  Level Cleveland Center
10:25PM 40.7008 -80.4928 237° Southwest 270 311 16,000  Level Cleveland Center
10:26PM 40.6572 -80.5694 233° Southwest 270 311 16,000  Level Cleveland Center
10:27PM 40.6175 -80.6486 237° Southwest 270 311 16,000  Level Cleveland Center
10:28PM 40.5736 -80.7281 234° Southwest 260 299 16,000  Level Cleveland Center
10:29PM 40.5317 -80.8044 234° Southwest 260 299 16,000  Level Cleveland Center
10:30PM 40.4900 -80.8778 233° Southwest 260 299 16,000  Level Cleveland Center
10:31PM 40.4458 -80.9569 234° Southwest 265 305 16,000  Level Cleveland Center
10:32PM 40.3997 -81.0303 230° Southwest 270 311 16,000  Level Cleveland Center
10:33PM 40.3536 -81.1033 230° Southwest 270 311 16,000  Level Cleveland Center
10:34PM 40.3053 -81.1739 228° Southwest 265 305 16,000  Level Cleveland Center
10:35PM 40.2592 -81.2469 230° Southwest 265 305 16,000  Level Cleveland Center
10:36PM 40.2106 -81.3197 229° Southwest 265 305 16,000  Level Cleveland Center
10:39PM 40.1050 -81.5019 233° Southwest 262 302 16,000  Level Indianapolis Center
10:40PM 40.0650 -81.5806 236° Southwest 258 297 16,000  Level Indianapolis Center
10:41PM 40.0281 -81.6608 239° Southwest 257 296 16,000  Level Indianapolis Center
10:42PM 39.9914 -81.7419 239° Southwest 256 295 16,000  Level Indianapolis Center
10:43PM 39.9575 -81.8306 244° Southwest 263 303 16,000  Level Indianapolis Center
10:44PM 39.9253 -81.9161 244° Southwest 262 302 16,000  Level Indianapolis Center
10:45PM 39.9069 -82.0072 255° West 259 298 16,000  Level Indianapolis Center
10:46PM 39.8897 -82.0992 256° West 260 299 16,000  Level Indianapolis Center
10:47PM 39.8639 -82.1881 249° West 260 299 16,000  Level Indianapolis Center
10:48PM 39.8419 -82.2789 253° West 260 299 16,000  Level Indianapolis Center
10:49PM 39.8172 -82.3842 253° West 260 299 16,000  Level Indianapolis Center
10:50PM 39.7939 -82.4736 251° West 259 298 16,000  Level Indianapolis Center
10:51PM 39.7689 -82.5619 250° West 258 297 16,000  Level Indianapolis Center
10:52PM 39.7436 -82.6511 250° West 259 298 16,000  Level Indianapolis Center
10:53PM 39.7158 -82.7372 247° West 256 295 16,000  Level Indianapolis Center
10:54PM 39.6906 -82.8253 250° West 258 297 16,000  Level Indianapolis Center
10:55PM 39.6647 -82.9136 249° West 258 297 16,000  Level Indianapolis Center
10:56PM 39.6386 -83.0025 249° West 260 299 16,000  Level Indianapolis Center
10:57PM 39.6133 -83.0903 250° West 258 297 16,000  Level Indianapolis Center
10:58PM 39.5867 -83.1781 249° West 258 297 16,000 -480 Level Indianapolis Center
10:59PM 39.5575 -83.2683 247° West 266 306 15,100 -1,080 Descending Indianapolis Center
11:00PM 39.5225 -83.3606 244° Southwest 279 321 13,900 -1,200 Descending Indianapolis Center
11:01PM 39.4994 -83.4558 253° West 274 315 12,700 -1,260 Descending Indianapolis Center
11:02PM 39.4778 -83.5525 254° West 277 319 11,400 -840 Descending Indianapolis Center
11:03PM 39.4583 -83.6461 255° West 267 307 11,000 -300 Descending Indianapolis Center
11:04PM 39.4414 -83.7400 257° West 265 305 10,900 -60 Descending Indianapolis Center
11:05PM 39.4219 -83.8336 255° West 270 311 10,900  Level Indianapolis Center
11:06PM 39.3875 -83.9183 242° Southwest 265 305 10,900  Level Indianapolis Center
11:07PM 39.3486 -84.0008 239° Southwest 265 305 10,900 -180 Level Indianapolis Center
11:08PM 39.3119 -84.0833 240° Southwest 263 303 10,600 -900 Descending Indianapolis Center
11:10PM 39.2783 -84.1694 243° Southwest 267 307 9,100 -1,380 Descending Indianapolis Center
11:11PM 39.2542 -84.2561 250° West 257 296 7,800 -1,620 Descending Indianapolis Center
11:12PM 39.2303 -84.3533 252° West 244 281 5,900 -1,680 Descending Indianapolis Center
11:13PM 39.2089 -84.4358 252° West 241 277 4,400 -1,440 Descending Indianapolis Center
11:14PM 39.1939 -84.5039 254° West 239 275 3,000 -660 Descending Indianapolis Center
11:15PM 39.1667 -84.6500 257° West 201 231 2,700 -360 Descending Cincinnati TRACON
11:16PM 39.1333 -84.6833 218° Southwest 125 144 2,100 -600 Descending Cincinnati TRACON
11:17PM 39.1000 -84.6833 180° South 108 124 1,500 -600 Descending Cincinnati TRACON
11:19PM 39.0488 -84.6678 247° West  Level Estimated
11:26PM 39.0488 -84.6678 247° West  Level Estimated